Gosforth, United Kingdom
Current Conditions -  °F | °C
As of 9:50 PM on Monday 20 Oct 2014 (Local Time) from EGNT Reporting Station
Few Clouds Few Clouds  
Wind Chill: 12°   Ceiling: Unl
Heat Index: 12°   Visibility: 6mi
Dew Point:   Wind: 9mph
Humidity: 82%   Direction: 200°SSW
Pressure: 29.62"   Gusts: NA
Location:  55°N, 1.62°W
Report Text: EGNT 202050Z 20008KT 150V230 9999 FEW025 12/09 Q1003
Loading
Personal Weather Stations






























Interactive Weather Map
Tropical Storm Tracking
New forecast layout! Learn more

10-Day Weather Forecast

Advertisements
Track Severe Weather on mobile